sensor_id;sensor_type;location;lat;lon;timestamp;P1;durP1;ratioP1;P2;durP2;ratioP2
17330;SDS011;8783;52.448;4.638;2022-09-09T00:01:54;3.00;;;1.20;;
17330;SDS011;8783;52.448;4.638;2022-09-09T00:04:27;5.80;;;1.50;;
17330;SDS011;8783;52.448;4.638;2022-09-09T00:09:29;4.38;;;1.45;;
17330;SDS011;8783;52.448;4.638;2022-09-09T00:12:22;4.88;;;1.60;;
17330;SDS011;8783;52.448;4.638;2022-09-09T00:15:14;4.50;;;1.60;;
17330;SDS011;8783;52.448;4.638;2022-09-09T00:17:48;3.88;;;1.60;;
17330;SDS011;8783;52.448;4.638;2022-09-09T00:28:23;4.20;;;1.70;;
17330;SDS011;8783;52.448;4.638;2022-09-09T00:30:51;3.72;;;1.65;;
17330;SDS011;8783;52.448;4.638;2022-09-09T00:33:19;4.22;;;1.40;;
17330;SDS011;8783;52.448;4.638;2022-09-09T00:35:48;3.88;;;1.38;;
17330;SDS011;8783;52.448;4.638;2022-09-09T00:41:03;4.47;;;1.42;;
17330;SDS011;8783;52.448;4.638;2022-09-09T00:43:36;4.90;;;1.75;;
17330;SDS011;8783;52.448;4.638;2022-09-09T00:57:26;5.68;;;1.60;;
17330;SDS011;8783;52.448;4.638;2022-09-09T01:03:30;4.93;;;1.95;;
17330;SDS011;8783;52.448;4.638;2022-09-09T01:10:59;4.72;;;1.60;;
17330;SDS011;8783;52.448;4.638;2022-09-09T01:13:32;5.80;;;1.88;;
17330;SDS011;8783;52.448;4.638;2022-09-09T01:16:07;5.72;;;2.15;;
17330;SDS011;8783;52.448;4.638;2022-09-09T01:18:39;4.93;;;1.98;;
17330;SDS011;8783;52.448;4.638;2022-09-09T01:21:18;5.05;;;1.88;;
17330;SDS011;8783;52.448;4.638;2022-09-09T01:27:12;6.45;;;2.15;;
17330;SDS011;8783;52.448;4.638;2022-09-09T01:29:42;7.15;;;2.25;;
17330;SDS011;8783;52.448;4.638;2022-09-09T01:35:01;4.03;;;2.00;;
17330;SDS011;8783;52.448;4.638;2022-09-09T01:37:28;6.47;;;2.00;;
17330;SDS011;8783;52.448;4.638;2022-09-09T01:39:56;3.83;;;2.03;;
17330;SDS011;8783;52.448;4.638;2022-09-09T01:42:24;6.57;;;2.10;;
17330;SDS011;8783;52.448;4.638;2022-09-09T01:44:53;6.18;;;2.42;;
17330;SDS011;8783;52.448;4.638;2022-09-09T01:47:22;7.38;;;2.55;;
17330;SDS011;8783;52.448;4.638;2022-09-09T01:49:50;5.88;;;2.60;;
17330;SDS011;8783;52.448;4.638;2022-09-09T01:52:19;4.95;;;2.65;;
17330;SDS011;8783;52.448;4.638;2022-09-09T01:54:44;7.50;;;3.13;;
17330;SDS011;8783;52.448;4.638;2022-09-09T01:57:33;6.70;;;2.40;;
17330;SDS011;8783;52.448;4.638;2022-09-09T02:00:08;6.93;;;2.47;;
17330;SDS011;8783;52.448;4.638;2022-09-09T02:02:43;6.90;;;2.80;;
17330;SDS011;8783;52.448;4.638;2022-09-09T02:07:49;11.23;;;3.50;;
17330;SDS011;8783;52.448;4.638;2022-09-09T02:11:06;9.05;;;2.83;;
17330;SDS011;8783;52.448;4.638;2022-09-09T02:13:21;8.27;;;3.92;;
17330;SDS011;8783;52.448;4.638;2022-09-09T02:15:52;7.40;;;3.20;;
17330;SDS011;8783;52.448;4.638;2022-09-09T02:18:27;9.15;;;3.75;;
17330;SDS011;8783;52.448;4.638;2022-09-09T02:21:08;9.65;;;3.53;;
17330;SDS011;8783;52.448;4.638;2022-09-09T02:23:39;8.93;;;3.47;;
17330;SDS011;8783;52.448;4.638;2022-09-09T02:26:06;6.07;;;3.25;;
17330;SDS011;8783;52.448;4.638;2022-09-09T02:28:38;8.23;;;3.65;;
17330;SDS011;8783;52.448;4.638;2022-09-09T02:31:05;6.20;;;3.47;;
17330;SDS011;8783;52.448;4.638;2022-09-09T02:33:33;7.10;;;3.97;;
17330;SDS011;8783;52.448;4.638;2022-09-09T02:36:08;8.77;;;3.83;;
17330;SDS011;8783;52.448;4.638;2022-09-09T02:38:42;6.95;;;3.72;;
17330;SDS011;8783;52.448;4.638;2022-09-09T02:41:22;6.90;;;3.97;;
17330;SDS011;8783;52.448;4.638;2022-09-09T02:43:55;10.20;;;4.22;;
17330;SDS011;8783;52.448;4.638;2022-09-09T02:46:27;8.65;;;3.70;;
17330;SDS011;8783;52.448;4.638;2022-09-09T02:49:09;7.88;;;3.70;;
17330;SDS011;8783;52.448;4.638;2022-09-09T02:59:49;7.22;;;4.00;;
17330;SDS011;8783;52.448;4.638;2022-09-09T03:02:17;8.57;;;3.95;;
17330;SDS011;8783;52.448;4.638;2022-09-09T03:04:45;8.98;;;4.07;;
17330;SDS011;8783;52.448;4.638;2022-09-09T03:07:15;9.75;;;4.35;;
17330;SDS011;8783;52.448;4.638;2022-09-09T03:09:44;10.13;;;4.35;;
17330;SDS011;8783;52.448;4.638;2022-09-09T03:12:13;12.68;;;4.80;;
17330;SDS011;8783;52.448;4.638;2022-09-09T03:14:39;7.85;;;4.25;;
17330;SDS011;8783;52.448;4.638;2022-09-09T03:17:10;7.53;;;4.50;;
17330;SDS011;8783;52.448;4.638;2022-09-09T03:19:38;7.78;;;4.40;;
17330;SDS011;8783;52.448;4.638;2022-09-09T03:22:04;7.32;;;3.85;;
17330;SDS011;8783;52.448;4.638;2022-09-09T03:24:30;8.15;;;3.80;;
17330;SDS011;8783;52.448;4.638;2022-09-09T03:26:58;5.65;;;3.45;;
17330;SDS011;8783;52.448;4.638;2022-09-09T03:29:30;9.48;;;3.70;;
17330;SDS011;8783;52.448;4.638;2022-09-09T03:31:59;7.10;;;3.50;;
17330;SDS011;8783;52.448;4.638;2022-09-09T03:34:24;8.48;;;4.03;;
17330;SDS011;8783;52.448;4.638;2022-09-09T03:36:50;9.75;;;4.45;;
17330;SDS011;8783;52.448;4.638;2022-09-09T03:39:16;7.82;;;3.60;;
17330;SDS011;8783;52.448;4.638;2022-09-09T03:41:44;7.22;;;4.40;;
17330;SDS011;8783;52.448;4.638;2022-09-09T03:44:12;5.15;;;3.08;;
17330;SDS011;8783;52.448;4.638;2022-09-09T03:46:38;6.70;;;3.10;;
17330;SDS011;8783;52.448;4.638;2022-09-09T03:49:04;5.93;;;3.00;;
17330;SDS011;8783;52.448;4.638;2022-09-09T03:51:29;4.47;;;2.67;;
17330;SDS011;8783;52.448;4.638;2022-09-09T03:53:55;9.90;;;4.00;;
17330;SDS011;8783;52.448;4.638;2022-09-09T03:56:23;7.68;;;3.20;;
17330;SDS011;8783;52.448;4.638;2022-09-09T03:58:49;8.15;;;2.95;;
17330;SDS011;8783;52.448;4.638;2022-09-09T04:01:14;6.05;;;2.70;;
17330;SDS011;8783;52.448;4.638;2022-09-09T04:03:42;7.28;;;3.17;;
17330;SDS011;8783;52.448;4.638;2022-09-09T04:06:13;5.90;;;3.13;;
17330;SDS011;8783;52.448;4.638;2022-09-09T04:08:43;4.22;;;2.78;;
17330;SDS011;8783;52.448;4.638;2022-09-09T04:11:09;7.68;;;3.60;;
17330;SDS011;8783;52.448;4.638;2022-09-09T04:13:38;7.57;;;3.33;;
17330;SDS011;8783;52.448;4.638;2022-09-09T04:16:04;10.52;;;3.65;;
17330;SDS011;8783;52.448;4.638;2022-09-09T04:18:38;5.00;;;3.00;;
17330;SDS011;8783;52.448;4.638;2022-09-09T04:21:03;8.23;;;2.80;;
17330;SDS011;8783;52.448;4.638;2022-09-09T04:23:31;6.50;;;2.65;;
17330;SDS011;8783;52.448;4.638;2022-09-09T04:26:01;5.60;;;2.45;;
17330;SDS011;8783;52.448;4.638;2022-09-09T04:28:28;7.88;;;2.92;;
17330;SDS011;8783;52.448;4.638;2022-09-09T04:30:56;5.53;;;2.88;;
17330;SDS011;8783;52.448;4.638;2022-09-09T04:33:24;8.70;;;3.15;;
17330;SDS011;8783;52.448;4.638;2022-09-09T04:35:53;6.85;;;3.22;;
17330;SDS011;8783;52.448;4.638;2022-09-09T04:38:19;7.32;;;2.88;;
17330;SDS011;8783;52.448;4.638;2022-09-09T04:40:49;12.13;;;3.42;;
17330;SDS011;8783;52.448;4.638;2022-09-09T04:43:19;9.65;;;3.22;;
17330;SDS011;8783;52.448;4.638;2022-09-09T04:45:49;7.22;;;4.28;;
17330;SDS011;8783;52.448;4.638;2022-09-09T04:48:24;6.78;;;3.50;;
17330;SDS011;8783;52.448;4.638;2022-09-09T04:50:54;7.72;;;4.40;;
17330;SDS011;8783;52.448;4.638;2022-09-09T04:53:21;7.70;;;3.45;;
17330;SDS011;8783;52.448;4.638;2022-09-09T04:55:47;5.28;;;3.08;;
17330;SDS011;8783;52.448;4.638;2022-09-09T04:58:12;5.95;;;3.28;;
17330;SDS011;8783;52.448;4.638;2022-09-09T05:00:38;6.90;;;3.35;;
17330;SDS011;8783;52.448;4.638;2022-09-09T05:03:04;6.45;;;2.90;;
17330;SDS011;8783;52.448;4.638;2022-09-09T05:05:31;8.68;;;3.55;;
17330;SDS011;8783;52.448;4.638;2022-09-09T05:08:06;8.35;;;3.55;;
17330;SDS011;8783;52.448;4.638;2022-09-09T05:10:33;5.68;;;3.17;;
17330;SDS011;8783;52.448;4.638;2022-09-09T05:13:01;5.95;;;3.03;;
17330;SDS011;8783;52.448;4.638;2022-09-09T05:15:27;7.10;;;2.80;;
17330;SDS011;8783;52.448;4.638;2022-09-09T05:17:56;6.40;;;2.70;;
17330;SDS011;8783;52.448;4.638;2022-09-09T05:20:23;6.78;;;2.42;;
17330;SDS011;8783;52.448;4.638;2022-09-09T05:22:52;5.88;;;2.90;;
17330;SDS011;8783;52.448;4.638;2022-09-09T05:25:18;6.82;;;2.88;;
17330;SDS011;8783;52.448;4.638;2022-09-09T05:27:44;6.78;;;2.75;;
17330;SDS011;8783;52.448;4.638;2022-09-09T05:30:10;8.52;;;2.47;;
17330;SDS011;8783;52.448;4.638;2022-09-09T05:32:36;6.25;;;2.42;;
17330;SDS011;8783;52.448;4.638;2022-09-09T05:35:02;10.88;;;3.28;;
17330;SDS011;8783;52.448;4.638;2022-09-09T05:37:28;13.73;;;2.95;;
17330;SDS011;8783;52.448;4.638;2022-09-09T05:39:55;6.90;;;2.80;;
17330;SDS011;8783;52.448;4.638;2022-09-09T05:42:21;8.13;;;2.75;;
17330;SDS011;8783;52.448;4.638;2022-09-09T05:44:46;3.95;;;1.83;;
17330;SDS011;8783;52.448;4.638;2022-09-09T05:47:12;7.60;;;2.20;;
17330;SDS011;8783;52.448;4.638;2022-09-09T05:49:37;6.68;;;2.58;;
17330;SDS011;8783;52.448;4.638;2022-09-09T05:52:03;4.90;;;1.88;;
17330;SDS011;8783;52.448;4.638;2022-09-09T05:54:29;7.15;;;2.55;;
17330;SDS011;8783;52.448;4.638;2022-09-09T05:56:54;6.70;;;2.30;;
17330;SDS011;8783;52.448;4.638;2022-09-09T05:59:20;6.80;;;2.53;;
17330;SDS011;8783;52.448;4.638;2022-09-09T06:01:48;5.68;;;1.85;;
17330;SDS011;8783;52.448;4.638;2022-09-09T06:04:13;6.72;;;2.17;;
17330;SDS011;8783;52.448;4.638;2022-09-09T06:06:40;3.80;;;2.25;;
17330;SDS011;8783;52.448;4.638;2022-09-09T06:09:07;4.32;;;2.17;;
17330;SDS011;8783;52.448;4.638;2022-09-09T06:11:35;5.97;;;2.05;;
17330;SDS011;8783;52.448;4.638;2022-09-09T06:14:02;6.45;;;1.80;;
17330;SDS011;8783;52.448;4.638;2022-09-09T06:16:28;5.97;;;1.90;;
17330;SDS011;8783;52.448;4.638;2022-09-09T06:18:55;5.20;;;2.00;;
17330;SDS011;8783;52.448;4.638;2022-09-09T06:21:22;7.10;;;1.83;;
17330;SDS011;8783;52.448;4.638;2022-09-09T06:23:49;5.93;;;2.38;;
17330;SDS011;8783;52.448;4.638;2022-09-09T06:26:19;7.82;;;1.98;;
17330;SDS011;8783;52.448;4.638;2022-09-09T06:28:48;7.63;;;2.10;;
17330;SDS011;8783;52.448;4.638;2022-09-09T06:31:17;7.90;;;2.50;;
17330;SDS011;8783;52.448;4.638;2022-09-09T06:33:52;12.18;;;1.95;;
17330;SDS011;8783;52.448;4.638;2022-09-09T06:36:21;9.95;;;1.95;;
17330;SDS011;8783;52.448;4.638;2022-09-09T06:38:48;8.30;;;1.90;;
17330;SDS011;8783;52.448;4.638;2022-09-09T06:41:14;7.82;;;2.10;;
17330;SDS011;8783;52.448;4.638;2022-09-09T06:43:42;11.52;;;1.92;;
17330;SDS011;8783;52.448;4.638;2022-09-09T06:46:11;11.77;;;2.47;;
17330;SDS011;8783;52.448;4.638;2022-09-09T06:48:41;6.90;;;1.98;;
17330;SDS011;8783;52.448;4.638;2022-09-09T06:51:16;8.80;;;1.98;;
17330;SDS011;8783;52.448;4.638;2022-09-09T06:53:43;12.15;;;2.50;;
17330;SDS011;8783;52.448;4.638;2022-09-09T06:58:36;7.63;;;1.90;;
17330;SDS011;8783;52.448;4.638;2022-09-09T07:01:09;12.45;;;2.33;;
17330;SDS011;8783;52.448;4.638;2022-09-09T07:03:40;9.45;;;2.30;;
17330;SDS011;8783;52.448;4.638;2022-09-09T07:06:07;8.27;;;2.17;;
17330;SDS011;8783;52.448;4.638;2022-09-09T07:08:38;7.78;;;2.03;;
17330;SDS011;8783;52.448;4.638;2022-09-09T07:11:07;6.00;;;2.13;;
17330;SDS011;8783;52.448;4.638;2022-09-09T07:13:33;9.48;;;2.30;;
17330;SDS011;8783;52.448;4.638;2022-09-09T07:16:10;10.52;;;2.65;;
17330;SDS011;8783;52.448;4.638;2022-09-09T07:18:38;10.38;;;2.20;;
17330;SDS011;8783;52.448;4.638;2022-09-09T07:21:04;10.05;;;2.10;;
17330;SDS011;8783;52.448;4.638;2022-09-09T07:23:31;6.22;;;2.10;;
17330;SDS011;8783;52.448;4.638;2022-09-09T07:25:57;7.97;;;2.17;;
17330;SDS011;8783;52.448;4.638;2022-09-09T07:28:24;8.35;;;2.45;;
17330;SDS011;8783;52.448;4.638;2022-09-09T07:30:58;10.77;;;2.30;;
17330;SDS011;8783;52.448;4.638;2022-09-09T07:33:27;9.23;;;2.13;;
17330;SDS011;8783;52.448;4.638;2022-09-09T07:36:01;9.18;;;1.92;;
17330;SDS011;8783;52.448;4.638;2022-09-09T07:38:32;10.02;;;2.80;;
17330;SDS011;8783;52.448;4.638;2022-09-09T07:41:06;10.77;;;2.85;;
17330;SDS011;8783;52.448;4.638;2022-09-09T07:43:37;13.50;;;2.78;;
17330;SDS011;8783;52.448;4.638;2022-09-09T07:46:07;12.45;;;2.97;;
17330;SDS011;8783;52.448;4.638;2022-09-09T07:48:33;8.82;;;2.70;;
17330;SDS011;8783;52.448;4.638;2022-09-09T07:51:04;11.77;;;2.70;;
17330;SDS011;8783;52.448;4.638;2022-09-09T07:53:31;12.27;;;2.83;;
17330;SDS011;8783;52.448;4.638;2022-09-09T07:56:03;9.38;;;2.72;;
17330;SDS011;8783;52.448;4.638;2022-09-09T07:58:30;11.40;;;2.97;;
17330;SDS011;8783;52.448;4.638;2022-09-09T08:00:56;9.70;;;2.75;;
17330;SDS011;8783;52.448;4.638;2022-09-09T08:03:22;9.63;;;2.80;;
17330;SDS011;8783;52.448;4.638;2022-09-09T08:05:48;10.68;;;2.90;;
17330;SDS011;8783;52.448;4.638;2022-09-09T08:08:14;12.60;;;3.25;;
17330;SDS011;8783;52.448;4.638;2022-09-09T08:10:41;11.18;;;2.60;;
17330;SDS011;8783;52.448;4.638;2022-09-09T08:13:08;8.93;;;2.65;;
17330;SDS011;8783;52.448;4.638;2022-09-09T08:15:34;13.00;;;2.97;;
17330;SDS011;8783;52.448;4.638;2022-09-09T08:18:00;8.38;;;2.50;;
17330;SDS011;8783;52.448;4.638;2022-09-09T08:20:25;9.70;;;2.55;;
17330;SDS011;8783;52.448;4.638;2022-09-09T08:22:52;13.55;;;2.92;;
17330;SDS011;8783;52.448;4.638;2022-09-09T08:25:17;11.20;;;2.53;;
17330;SDS011;8783;52.448;4.638;2022-09-09T08:27:43;8.27;;;2.70;;
17330;SDS011;8783;52.448;4.638;2022-09-09T08:30:09;11.88;;;2.75;;
17330;SDS011;8783;52.448;4.638;2022-09-09T08:32:35;12.00;;;3.08;;
17330;SDS011;8783;52.448;4.638;2022-09-09T08:35:01;9.70;;;2.38;;
17330;SDS011;8783;52.448;4.638;2022-09-09T08:37:26;8.85;;;2.28;;
17330;SDS011;8783;52.448;4.638;2022-09-09T08:39:52;8.07;;;2.63;;
17330;SDS011;8783;52.448;4.638;2022-09-09T08:42:26;11.57;;;2.92;;
17330;SDS011;8783;52.448;4.638;2022-09-09T08:45:03;8.02;;;2.50;;
17330;SDS011;8783;52.448;4.638;2022-09-09T08:47:46;10.10;;;2.72;;
17330;SDS011;8783;52.448;4.638;2022-09-09T08:52:59;9.43;;;3.30;;
17330;SDS011;8783;52.448;4.638;2022-09-09T08:55:33;9.65;;;2.92;;
17330;SDS011;8783;52.448;4.638;2022-09-09T08:58:18;12.25;;;3.10;;
17330;SDS011;8783;52.448;4.638;2022-09-09T09:03:43;10.70;;;2.42;;
17330;SDS011;8783;52.448;4.638;2022-09-09T09:11:37;10.25;;;2.72;;
17330;SDS011;8783;52.448;4.638;2022-09-09T09:14:26;10.60;;;3.00;;
17330;SDS011;8783;52.448;4.638;2022-09-09T09:16:53;11.80;;;2.20;;
17330;SDS011;8783;52.448;4.638;2022-09-09T09:19:24;8.70;;;2.22;;
17330;SDS011;8783;52.448;4.638;2022-09-09T09:22:06;6.13;;;2.08;;
17330;SDS011;8783;52.448;4.638;2022-09-09T09:27:18;7.53;;;2.28;;
17330;SDS011;8783;52.448;4.638;2022-09-09T09:29:47;8.38;;;2.50;;
17330;SDS011;8783;52.448;4.638;2022-09-09T09:32:18;11.15;;;2.80;;
17330;SDS011;8783;52.448;4.638;2022-09-09T09:34:49;11.07;;;2.55;;
17330;SDS011;8783;52.448;4.638;2022-09-09T09:37:23;9.95;;;2.72;;
17330;SDS011;8783;52.448;4.638;2022-09-09T09:39:56;10.32;;;2.40;;
17330;SDS011;8783;52.448;4.638;2022-09-09T09:42:32;11.90;;;2.90;;
17330;SDS011;8783;52.448;4.638;2022-09-09T09:45:07;11.68;;;2.70;;
17330;SDS011;8783;52.448;4.638;2022-09-09T09:50:27;12.75;;;3.08;;
17330;SDS011;8783;52.448;4.638;2022-09-09T09:53:00;10.07;;;2.47;;
17330;SDS011;8783;52.448;4.638;2022-09-09T09:55:47;9.15;;;2.53;;
17330;SDS011;8783;52.448;4.638;2022-09-09T09:58:19;10.57;;;2.45;;
17330;SDS011;8783;52.448;4.638;2022-09-09T10:00:49;14.75;;;2.70;;
17330;SDS011;8783;52.448;4.638;2022-09-09T10:03:20;7.30;;;2.42;;
17330;SDS011;8783;52.448;4.638;2022-09-09T10:05:52;10.50;;;2.47;;
17330;SDS011;8783;52.448;4.638;2022-09-09T10:08:18;11.00;;;2.28;;
17330;SDS011;8783;52.448;4.638;2022-09-09T10:16:29;9.93;;;2.20;;
17330;SDS011;8783;52.448;4.638;2022-09-09T10:25:01;33.90;;;16.33;;
17330;SDS011;8783;52.448;4.638;2022-09-09T10:30:24;33.20;;;16.17;;
17330;SDS011;8783;52.448;4.638;2022-09-09T10:35:57;14.57;;;6.60;;
17330;SDS011;8783;52.448;4.638;2022-09-09T10:38:52;14.73;;;5.50;;
17330;SDS011;8783;52.448;4.638;2022-09-09T10:44:02;12.63;;;4.07;;
17330;SDS011;8783;52.448;4.638;2022-09-09T10:49:22;9.80;;;2.42;;
17330;SDS011;8783;52.448;4.638;2022-09-09T10:54:43;6.90;;;2.22;;
17330;SDS011;8783;52.448;4.638;2022-09-09T10:57:17;17.10;;;2.83;;
17330;SDS011;8783;52.448;4.638;2022-09-09T11:00:01;12.82;;;2.72;;
17330;SDS011;8783;52.448;4.638;2022-09-09T11:02:39;14.93;;;2.42;;
17330;SDS011;8783;52.448;4.638;2022-09-09T11:05:10;12.15;;;2.30;;
17330;SDS011;8783;52.448;4.638;2022-09-09T11:07:58;7.35;;;2.20;;
17330;SDS011;8783;52.448;4.638;2022-09-09T11:13:44;8.02;;;2.05;;
17330;SDS011;8783;52.448;4.638;2022-09-09T11:16:33;8.93;;;2.20;;
17330;SDS011;8783;52.448;4.638;2022-09-09T11:19:20;10.52;;;2.38;;
17330;SDS011;8783;52.448;4.638;2022-09-09T11:21:55;7.53;;;1.98;;
17330;SDS011;8783;52.448;4.638;2022-09-09T11:24:35;9.43;;;2.13;;
17330;SDS011;8783;52.448;4.638;2022-09-09T11:27:15;12.65;;;1.90;;
17330;SDS011;8783;52.448;4.638;2022-09-09T11:43:00;6.40;;;1.83;;
17330;SDS011;8783;52.448;4.638;2022-09-09T11:45:33;10.38;;;2.10;;
17330;SDS011;8783;52.448;4.638;2022-09-09T11:48:01;7.93;;;2.17;;
17330;SDS011;8783;52.448;4.638;2022-09-09T11:50:29;12.73;;;2.40;;
17330;SDS011;8783;52.448;4.638;2022-09-09T11:53:03;8.02;;;2.05;;
17330;SDS011;8783;52.448;4.638;2022-09-09T11:55:33;11.20;;;2.13;;
17330;SDS011;8783;52.448;4.638;2022-09-09T11:58:03;9.05;;;2.10;;
17330;SDS011;8783;52.448;4.638;2022-09-09T12:00:32;7.10;;;1.85;;
17330;SDS011;8783;52.448;4.638;2022-09-09T12:02:58;7.80;;;1.73;;
17330;SDS011;8783;52.448;4.638;2022-09-09T12:05:24;7.50;;;1.90;;
17330;SDS011;8783;52.448;4.638;2022-09-09T12:08:03;7.75;;;1.88;;
17330;SDS011;8783;52.448;4.638;2022-09-09T12:10:31;5.70;;;1.80;;
17330;SDS011;8783;52.448;4.638;2022-09-09T12:13:17;7.63;;;1.58;;
17330;SDS011;8783;52.448;4.638;2022-09-09T12:15:49;6.97;;;2.00;;
17330;SDS011;8783;52.448;4.638;2022-09-09T12:19:02;7.88;;;2.00;;
17330;SDS011;8783;52.448;4.638;2022-09-09T12:23:58;6.55;;;1.75;;
17330;SDS011;8783;52.448;4.638;2022-09-09T12:31:53;4.88;;;1.50;;
17330;SDS011;8783;52.448;4.638;2022-09-09T12:34:40;7.15;;;1.95;;
17330;SDS011;8783;52.448;4.638;2022-09-09T12:42:43;6.22;;;1.75;;
17330;SDS011;8783;52.448;4.638;2022-09-09T12:45:22;4.88;;;1.50;;
17330;SDS011;8783;52.448;4.638;2022-09-09T12:50:24;5.15;;;1.40;;
17330;SDS011;8783;52.448;4.638;2022-09-09T12:52:59;5.22;;;1.50;;
17330;SDS011;8783;52.448;4.638;2022-09-09T12:55:36;3.75;;;1.23;;
17330;SDS011;8783;52.448;4.638;2022-09-09T12:58:04;7.15;;;1.33;;
17330;SDS011;8783;52.448;4.638;2022-09-09T13:00:38;5.22;;;1.50;;
17330;SDS011;8783;52.448;4.638;2022-09-09T13:03:16;6.85;;;1.60;;
17330;SDS011;8783;52.448;4.638;2022-09-09T13:05:43;5.78;;;1.65;;
17330;SDS011;8783;52.448;4.638;2022-09-09T13:08:12;3.67;;;1.63;;
17330;SDS011;8783;52.448;4.638;2022-09-09T13:11:03;7.22;;;2.10;;
17330;SDS011;8783;52.448;4.638;2022-09-09T13:13:39;5.25;;;1.60;;
17330;SDS011;8783;52.448;4.638;2022-09-09T13:16:19;4.20;;;1.52;;
17330;SDS011;8783;52.448;4.638;2022-09-09T13:18:59;6.97;;;1.58;;
17330;SDS011;8783;52.448;4.638;2022-09-09T13:21:31;4.78;;;1.65;;
17330;SDS011;8783;52.448;4.638;2022-09-09T13:24:00;6.22;;;1.15;;
17330;SDS011;8783;52.448;4.638;2022-09-09T13:26:29;7.53;;;1.63;;
17330;SDS011;8783;52.448;4.638;2022-09-09T13:29:17;6.25;;;1.60;;
17330;SDS011;8783;52.448;4.638;2022-09-09T13:31:46;3.75;;;1.50;;
17330;SDS011;8783;52.448;4.638;2022-09-09T13:34:30;4.43;;;1.23;;
17330;SDS011;8783;52.448;4.638;2022-09-09T13:37:02;6.00;;;1.50;;
17330;SDS011;8783;52.448;4.638;2022-09-09T13:39:50;3.97;;;1.63;;
17330;SDS011;8783;52.448;4.638;2022-09-09T13:42:24;4.18;;;1.48;;
17330;SDS011;8783;52.448;4.638;2022-09-09T13:45:00;5.97;;;1.92;;
17330;SDS011;8783;52.448;4.638;2022-09-09T13:47:30;7.55;;;1.98;;
17330;SDS011;8783;52.448;4.638;2022-09-09T13:49:58;9.27;;;1.90;;
17330;SDS011;8783;52.448;4.638;2022-09-09T13:52:34;5.30;;;1.60;;
17330;SDS011;8783;52.448;4.638;2022-09-09T13:55:00;8.15;;;1.88;;
17330;SDS011;8783;52.448;4.638;2022-09-09T13:57:26;4.78;;;1.50;;
17330;SDS011;8783;52.448;4.638;2022-09-09T13:59:52;11.65;;;1.60;;
17330;SDS011;8783;52.448;4.638;2022-09-09T14:02:19;6.05;;;1.50;;
17330;SDS011;8783;52.448;4.638;2022-09-09T14:04:47;5.47;;;1.45;;
17330;SDS011;8783;52.448;4.638;2022-09-09T14:07:16;4.88;;;1.50;;
17330;SDS011;8783;52.448;4.638;2022-09-09T14:09:43;4.57;;;1.35;;
17330;SDS011;8783;52.448;4.638;2022-09-09T14:12:13;7.63;;;1.67;;
17330;SDS011;8783;52.448;4.638;2022-09-09T14:14:40;5.55;;;1.30;;
17330;SDS011;8783;52.448;4.638;2022-09-09T14:17:07;5.85;;;1.60;;
17330;SDS011;8783;52.448;4.638;2022-09-09T14:19:33;4.30;;;1.33;;
17330;SDS011;8783;52.448;4.638;2022-09-09T14:21:59;4.50;;;1.40;;
17330;SDS011;8783;52.448;4.638;2022-09-09T14:24:26;4.55;;;1.40;;
17330;SDS011;8783;52.448;4.638;2022-09-09T14:26:52;2.72;;;1.10;;
17330;SDS011;8783;52.448;4.638;2022-09-09T14:29:18;3.08;;;1.05;;
17330;SDS011;8783;52.448;4.638;2022-09-09T14:31:44;4.22;;;1.20;;
17330;SDS011;8783;52.448;4.638;2022-09-09T14:34:10;3.95;;;0.90;;
17330;SDS011;8783;52.448;4.638;2022-09-09T14:36:36;7.50;;;1.50;;
17330;SDS011;8783;52.448;4.638;2022-09-09T14:39:02;3.97;;;1.10;;
17330;SDS011;8783;52.448;4.638;2022-09-09T14:41:29;5.68;;;1.10;;
17330;SDS011;8783;52.448;4.638;2022-09-09T14:43:55;4.65;;;1.30;;
17330;SDS011;8783;52.448;4.638;2022-09-09T14:46:24;6.05;;;1.40;;
17330;SDS011;8783;52.448;4.638;2022-09-09T14:48:51;3.63;;;1.08;;
17330;SDS011;8783;52.448;4.638;2022-09-09T14:51:19;10.18;;;1.35;;
17330;SDS011;8783;52.448;4.638;2022-09-09T14:53:47;5.47;;;1.40;;
17330;SDS011;8783;52.448;4.638;2022-09-09T14:56:16;6.13;;;1.38;;
17330;SDS011;8783;52.448;4.638;2022-09-09T14:58:43;3.72;;;1.15;;
17330;SDS011;8783;52.448;4.638;2022-09-09T15:01:13;4.72;;;1.35;;
17330;SDS011;8783;52.448;4.638;2022-09-09T15:03:41;6.13;;;1.67;;
17330;SDS011;8783;52.448;4.638;2022-09-09T15:06:09;4.45;;;1.20;;
17330;SDS011;8783;52.448;4.638;2022-09-09T15:08:37;9.13;;;1.23;;
17330;SDS011;8783;52.448;4.638;2022-09-09T15:11:06;3.30;;;1.10;;
17330;SDS011;8783;52.448;4.638;2022-09-09T15:13:32;5.07;;;1.15;;
17330;SDS011;8783;52.448;4.638;2022-09-09T15:16:11;6.97;;;1.55;;
17330;SDS011;8783;52.448;4.638;2022-09-09T15:18:37;4.22;;;1.15;;
17330;SDS011;8783;52.448;4.638;2022-09-09T15:21:07;5.32;;;1.23;;
17330;SDS011;8783;52.448;4.638;2022-09-09T15:23:35;5.55;;;1.23;;
17330;SDS011;8783;52.448;4.638;2022-09-09T15:26:01;4.00;;;1.10;;
17330;SDS011;8783;52.448;4.638;2022-09-09T15:28:31;3.42;;;1.20;;
17330;SDS011;8783;52.448;4.638;2022-09-09T15:31:04;7.57;;;1.40;;
17330;SDS011;8783;52.448;4.638;2022-09-09T15:33:35;5.03;;;1.10;;
17330;SDS011;8783;52.448;4.638;2022-09-09T15:36:21;3.97;;;1.20;;
17330;SDS011;8783;52.448;4.638;2022-09-09T15:38:49;5.80;;;1.20;;
17330;SDS011;8783;52.448;4.638;2022-09-09T15:41:18;4.05;;;1.20;;
17330;SDS011;8783;52.448;4.638;2022-09-09T15:43:49;7.95;;;1.70;;
17330;SDS011;8783;52.448;4.638;2022-09-09T15:48:45;4.10;;;1.17;;
17330;SDS011;8783;52.448;4.638;2022-09-09T15:51:11;6.00;;;1.30;;
17330;SDS011;8783;52.448;4.638;2022-09-09T15:53:39;6.38;;;1.27;;
17330;SDS011;8783;52.448;4.638;2022-09-09T15:56:08;5.70;;;1.13;;
17330;SDS011;8783;52.448;4.638;2022-09-09T15:58:37;7.10;;;1.45;;
17330;SDS011;8783;52.448;4.638;2022-09-09T16:01:09;5.70;;;1.40;;
17330;SDS011;8783;52.448;4.638;2022-09-09T16:03:40;4.53;;;1.20;;
17330;SDS011;8783;52.448;4.638;2022-09-09T16:06:10;9.55;;;1.60;;
17330;SDS011;8783;52.448;4.638;2022-09-09T16:08:36;5.57;;;1.50;;
17330;SDS011;8783;52.448;4.638;2022-09-09T16:11:12;5.05;;;1.27;;
17330;SDS011;8783;52.448;4.638;2022-09-09T16:13:45;8.25;;;1.63;;
17330;SDS011;8783;52.448;4.638;2022-09-09T16:16:13;7.65;;;1.40;;
17330;SDS011;8783;52.448;4.638;2022-09-09T16:18:48;9.77;;;1.60;;
17330;SDS011;8783;52.448;4.638;2022-09-09T16:21:23;6.28;;;1.63;;
17330;SDS011;8783;52.448;4.638;2022-09-09T16:23:50;7.15;;;1.35;;
17330;SDS011;8783;52.448;4.638;2022-09-09T16:26:19;7.85;;;1.92;;
17330;SDS011;8783;52.448;4.638;2022-09-09T16:28:45;5.60;;;1.67;;
17330;SDS011;8783;52.448;4.638;2022-09-09T16:31:24;8.60;;;1.77;;
17330;SDS011;8783;52.448;4.638;2022-09-09T16:33:50;8.20;;;1.55;;
17330;SDS011;8783;52.448;4.638;2022-09-09T16:36:17;10.57;;;2.00;;
17330;SDS011;8783;52.448;4.638;2022-09-09T16:38:51;7.60;;;1.30;;
17330;SDS011;8783;52.448;4.638;2022-09-09T16:41:22;8.75;;;1.85;;
17330;SDS011;8783;52.448;4.638;2022-09-09T16:43:51;7.65;;;1.40;;
17330;SDS011;8783;52.448;4.638;2022-09-09T16:46:21;7.88;;;1.88;;
17330;SDS011;8783;52.448;4.638;2022-09-09T16:48:49;7.05;;;1.67;;
17330;SDS011;8783;52.448;4.638;2022-09-09T16:51:16;5.88;;;1.40;;
17330;SDS011;8783;52.448;4.638;2022-09-09T16:53:55;7.43;;;1.58;;
17330;SDS011;8783;52.448;4.638;2022-09-09T16:56:29;13.82;;;1.80;;
17330;SDS011;8783;52.448;4.638;2022-09-09T16:59:02;10.57;;;2.10;;
17330;SDS011;8783;52.448;4.638;2022-09-09T17:01:30;9.20;;;1.70;;
17330;SDS011;8783;52.448;4.638;2022-09-09T17:04:06;6.88;;;1.83;;
17330;SDS011;8783;52.448;4.638;2022-09-09T17:06:33;6.60;;;1.45;;
17330;SDS011;8783;52.448;4.638;2022-09-09T17:09:00;7.18;;;1.58;;
17330;SDS011;8783;52.448;4.638;2022-09-09T17:11:27;7.30;;;1.95;;
17330;SDS011;8783;52.448;4.638;2022-09-09T17:13:55;4.95;;;1.42;;
17330;SDS011;8783;52.448;4.638;2022-09-09T17:16:23;6.47;;;1.70;;
17330;SDS011;8783;52.448;4.638;2022-09-09T17:18:50;7.90;;;1.80;;
17330;SDS011;8783;52.448;4.638;2022-09-09T17:21:21;7.63;;;1.55;;
17330;SDS011;8783;52.448;4.638;2022-09-09T17:23:48;8.20;;;2.00;;
17330;SDS011;8783;52.448;4.638;2022-09-09T17:26:16;8.63;;;1.80;;
17330;SDS011;8783;52.448;4.638;2022-09-09T17:28:44;6.40;;;1.65;;